Time;durP1;ratioP1;P1;durP2;ratioP2;P2;SDS_P1;SDS_P2;PMS_P1;PMS_P2;Temp;Humidity;BMP_temperature;BMP_pressure;BME280_temperature;BME280_humidity;BME280_pressure;Samples;Min_cycle;Max_cycle;Signal;HPM_P1;HPM_P2
2023/10/30 07:23:11;;;;;;;8.05;2.80;;;;;;;-145.79;100.00;76813.50;5329945;27;20871;-69
2023/10/30 07:25:45;;;;;;;14.80;3.03;;;;;;;-145.79;100.00;76809.25;5330325;28;20058;-69
2023/10/30 07:28:16;;;;;;;10.60;3.78;;;;;;;-145.79;100.00;76813.50;5334700;27;20440;-69
2023/10/30 07:30:48;;;;;;;9.13;3.38;;;;;;;-145.79;100.00;76794.41;5332624;27;20023;-68
2023/10/30 07:33:19;;;;;;;6.57;3.50;;;;;;;-145.79;100.00;76811.38;5330157;28;20027;-69
2023/10/30 07:35:53;;;;;;;10.18;3.40;;;;;;;-145.79;100.00;76813.50;5331838;28;20019;-69
2023/10/30 07:38:25;;;;;;;8.13;3.20;;;;;;;-145.79;100.00;76811.38;5333554;27;20038;-69
2023/10/30 07:40:56;;;;;;;8.38;2.70;;;;;;;-145.79;100.00;76813.50;5333262;28;20031;-67
2023/10/30 07:43:28;;;;;;;12.80;2.80;;;;;;;-145.79;100.00;76821.97;5329856;28;20364;-68
2023/10/30 07:45:59;;;;;;;5.65;2.45;;;;;;;-145.79;100.00;76813.50;5330360;28;20059;-68
2023/10/30 07:48:31;;;;;;;7.65;2.90;;;;;;;-145.79;100.00;76805.00;5333301;27;20031;-68
2023/10/30 07:51:02;;;;;;;6.63;3.10;;;;;;;-145.79;100.00;76805.00;5325867;27;20023;-69
2023/10/30 07:53:33;;;;;;;8.80;2.88;;;;;;;-145.79;100.00;76794.41;5334532;28;20139;-69
2023/10/30 07:56:05;;;;;;;14.30;4.32;;;;;;;-145.79;100.00;76788.06;5333528;28;20030;-68
2023/10/30 07:58:36;;;;;;;10.35;3.55;;;;;;;-145.79;100.00;76788.06;5329282;28;20032;-68
2023/10/30 08:01:10;;;;;;;7.03;2.95;;;;;;;-145.79;100.00;76788.06;5330052;28;20063;-68
2023/10/30 08:03:41;;;;;;;10.20;4.72;;;;;;;-145.79;100.00;76779.59;5334025;27;20019;-69
2023/10/30 08:06:12;;;;;;;9.63;4.53;;;;;;;-145.79;100.00;76775.34;5333557;27;20538;-67
2023/10/30 08:08:44;;;;;;;12.38;3.85;;;;;;;-145.79;100.00;76779.59;5329965;28;20024;-68
2023/10/30 08:11:15;;;;;;;5.63;2.80;;;;;;;-145.79;100.00;76777.47;5329383;28;20027;-69
2023/10/30 08:13:46;;;;;;;7.38;2.53;;;;;;;-145.79;100.00;76773.22;5327052;28;20069;-68
2023/10/30 08:16:18;;;;;;;7.35;2.15;;;;;;;-145.79;100.00;76775.34;5333595;27;20026;-68
2023/10/30 08:18:49;;;;;;;7.03;2.78;;;;;;;-145.79;100.00;76762.63;5329613;27;20020;-69
2023/10/30 08:21:20;;;;;;;11.00;2.47;;;;;;;-145.79;100.00;76762.63;5335496;28;20043;-68
2023/10/30 08:23:51;;;;;;;6.20;2.83;;;;;;;-145.79;100.00;76754.16;5354283;27;20031;-67
2023/10/30 08:26:23;;;;;;;6.20;2.60;;;;;;;-145.79;100.00;76745.69;5349093;27;20027;-68
2023/10/30 08:28:55;;;;;;;8.95;2.85;;;;;;;-145.79;100.00;76749.91;5353072;27;20047;-69
2023/10/30 08:31:26;;;;;;;11.90;3.97;;;;;;;-145.79;100.00;76747.78;5354261;27;20027;-68
2023/10/30 08:34:00;;;;;;;9.38;4.68;;;;;;;-145.79;100.00;76754.16;5340753;27;20057;-68
2023/10/30 08:36:32;;;;;;;8.52;2.83;;;;;;;-145.79;100.00;76749.91;5336361;27;20020;-68
2023/10/30 08:39:03;;;;;;;7.60;2.72;;;;;;;-145.79;100.00;76741.44;5339031;27;20114;-68
2023/10/30 08:41:35;;;;;;;11.77;3.63;;;;;;;-145.79;100.00;76737.19;5339364;27;20124;-68
2023/10/30 08:44:07;;;;;;;6.22;2.50;;;;;;;-145.79;100.00;76726.59;5329242;27;20475;-68
2023/10/30 08:46:38;;;;;;;7.82;4.03;;;;;;;-145.79;100.00;76722.34;5335999;27;20023;-68
2023/10/30 08:49:10;;;;;;;10.30;2.30;;;;;;;-145.79;100.00;76720.25;5337582;27;20031;-68
2023/10/30 08:51:42;;;;;;;6.32;3.45;;;;;;;-145.79;100.00;76716.00;5340503;27;20026;-68
2023/10/30 08:54:13;;;;;;;10.13;2.50;;;;;;;-145.79;100.00;76707.53;5337869;27;20031;-68
2023/10/30 08:56:44;;;;;;;7.03;2.40;;;;;;;-145.79;100.00;76701.16;5336151;27;20026;-67
2023/10/30 08:59:17;;;;;;;7.43;3.60;;;;;;;-145.79;100.00;76699.06;5337624;27;20034;-68
2023/10/30 09:01:48;;;;;;;15.98;9.02;;;;;;;-145.79;100.00;76686.34;5339678;27;20047;-68
2023/10/30 09:04:19;;;;;;;15.75;4.00;;;;;;;-145.79;100.00;76690.56;5337730;27;20384;-68
2023/10/30 09:06:51;;;;;;;7.72;2.58;;;;;;;-145.79;100.00;76682.09;5340259;27;20085;-69
2023/10/30 09:09:22;;;;;;;8.40;2.95;;;;;;;-145.79;100.00;76686.34;5338542;27;20058;-68
2023/10/30 09:11:53;;;;;;;9.60;2.55;;;;;;;-145.79;100.00;76679.97;5335255;27;20164;-68
2023/10/30 09:14:25;;;;;;;6.93;2.10;;;;;;;-145.79;100.00;76675.75;5336631;27;20024;-68
2023/10/30 09:16:56;;;;;;;6.07;2.65;;;;;;;-145.79;100.00;76677.84;5338038;27;20031;-68
2023/10/30 09:19:27;;;;;;;8.23;2.45;;;;;;;-145.79;100.00;76663.03;5336115;27;20119;-68
2023/10/30 09:21:59;;;;;;;5.15;2.08;;;;;;;-145.79;100.00;76667.25;5326198;27;20056;-68
2023/10/30 09:24:31;;;;;;;11.15;4.00;;;;;;;-145.79;100.00;76660.91;5335669;27;20102;-68
2023/10/30 09:27:03;;;;;;;6.68;2.10;;;;;;;-145.79;100.00;76652.44;5339737;27;20493;-68
2023/10/30 09:29:34;;;;;;;10.38;3.17;;;;;;;-145.79;100.00;76646.06;5339205;27;20060;-68
2023/10/30 09:32:06;;;;;;;4.82;2.13;;;;;;;-145.79;100.00;76646.06;5335702;27;20028;-68
2023/10/30 09:34:38;;;;;;;7.35;2.70;;;;;;;-145.79;100.00;76648.19;5335463;27;20065;-68
2023/10/30 09:37:10;;;;;;;3.13;1.95;;;;;;;-145.79;100.00;76646.06;5337910;27;20015;-68
2023/10/30 09:39:41;;;;;;;4.97;2.08;;;;;;;-145.79;100.00;76648.19;5339535;27;20026;-67
2023/10/30 09:42:14;;;;;;;6.60;2.20;;;;;;;-145.79;100.00;76641.84;5336151;27;20106;-68
2023/10/30 09:44:45;;;;;;;5.88;2.20;;;;;;;-145.79;100.00;76635.47;5333784;27;20023;-67
2023/10/30 09:47:19;;;;;;;7.07;1.95;;;;;;;-145.79;100.00;76633.34;5338160;27;20045;-68
2023/10/30 09:49:51;;;;;;;6.38;1.83;;;;;;;-145.79;100.00;76635.47;5339537;27;20412;-68
2023/10/30 09:52:26;;;;;;;5.85;2.22;;;;;;;-145.79;100.00;76631.22;5334994;27;20477;-68
2023/10/30 09:54:58;;;;;;;5.43;1.83;;;;;;;-145.79;100.00;76620.63;5335204;27;20083;-68
2023/10/30 09:57:29;;;;;;;8.23;2.58;;;;;;;-145.79;100.00;76614.28;5337379;27;20114;-68
2023/10/30 10:00:05;;;;;;;6.18;2.80;;;;;;;-145.79;100.00;76612.16;5338866;27;20031;-68
2023/10/30 10:02:36;;;;;;;7.78;2.97;;;;;;;-145.79;100.00;76601.56;5334886;27;20487;-68
2023/10/30 10:05:09;;;;;;;4.28;2.00;;;;;;;-145.79;100.00;76595.22;5334244;27;20038;-68
2023/10/30 10:07:40;;;;;;;5.70;2.20;;;;;;;-145.79;100.00;76584.59;5338110;27;20466;-68
2023/10/30 10:10:14;;;;;;;5.68;2.88;;;;;;;-145.79;100.00;76580.38;5334889;27;20024;-68
2023/10/30 10:12:50;;;;;;;5.82;1.95;;;;;;;-145.79;100.00;76580.38;5333910;27;20031;-68
2023/10/30 10:15:23;;;;;;;6.75;2.30;;;;;;;-145.79;100.00;76574.00;5334633;27;20474;-68
2023/10/30 10:17:54;;;;;;;5.75;1.80;;;;;;;-145.79;100.00;76574.00;5334564;27;20478;-68
2023/10/30 10:20:27;;;;;;;5.35;2.78;;;;;;;-145.79;100.00;76567.66;5333826;27;20179;-68
2023/10/30 10:22:58;;;;;;;5.03;2.03;;;;;;;-145.79;100.00;76567.66;5337726;27;20043;-68
2023/10/30 10:25:30;;;;;;;7.78;2.28;;;;;;;-145.79;100.00;76565.53;5329668;27;20091;-68
2023/10/30 10:28:02;;;;;;;3.50;1.92;;;;;;;-145.79;100.00;76565.53;5335925;27;20467;-69
2023/10/30 10:30:37;;;;;;;7.47;2.72;;;;;;;-145.79;100.00;76565.53;5334206;27;20027;-68
2023/10/30 10:33:09;;;;;;;8.95;2.67;;;;;;;-145.79;100.00;76554.94;5324066;27;20114;-68
2023/10/30 10:35:41;;;;;;;5.78;2.80;;;;;;;-145.79;100.00;76554.94;5325167;27;20102;-68
2023/10/30 10:38:16;;;;;;;5.03;1.85;;;;;;;-145.79;100.00;76550.69;5336622;27;20022;-68
2023/10/30 10:40:49;;;;;;;7.13;1.95;;;;;;;-145.79;100.00;76548.59;5332574;27;20107;-69
2023/10/30 10:43:23;;;;;;;6.13;1.90;;;;;;;-145.79;100.00;76546.47;5324780;27;20378;-68
2023/10/30 10:45:56;;;;;;;4.28;1.75;;;;;;;-145.79;100.00;76542.22;5325729;27;20058;-68
2023/10/30 10:48:27;;;;;;;6.25;1.90;;;;;;;-145.79;100.00;76540.09;5331316;27;20064;-68
2023/10/30 10:51:01;;;;;;;4.20;1.98;;;;;;;-145.79;100.00;76533.75;5332217;27;20031;-67
2023/10/30 10:53:35;;;;;;;3.40;2.03;;;;;;;-145.79;100.00;76538.00;5322359;27;20078;-68
2023/10/30 10:56:07;;;;;;;4.78;1.90;;;;;;;-145.79;100.00;76529.50;5332584;27;20027;-68
2023/10/30 10:58:56;;;;;;;6.03;1.80;;;;;;;-145.79;100.00;76521.03;5325855;27;20513;-68
2023/10/30 11:01:32;;;;;;;6.75;1.80;;;;;;;-145.79;100.00;76521.03;5315289;27;20465;-68
2023/10/30 11:04:04;;;;;;;6.88;1.73;;;;;;;-145.79;100.00;76521.03;5315013;28;20516;-69
2023/10/30 11:06:38;;;;;;;4.95;1.55;;;;;;;-145.79;100.00;76525.28;5329341;27;20088;-68
2023/10/30 11:09:17;;;;;;;6.03;1.90;;;;;;;-145.79;100.00;76514.69;5328324;27;20476;-68
2023/10/30 11:11:55;;;;;;;4.30;1.50;;;;;;;-145.79;100.00;76516.78;5324114;27;20038;-68
2023/10/30 11:14:48;;;;;;;4.38;1.92;;;;;;;-145.79;100.00;76512.56;5329789;27;20027;-68
2023/10/30 11:17:20;;;;;;;8.57;3.03;;;;;;;-145.79;100.00;76497.72;5329045;27;20027;-68
2023/10/30 11:20:00;;;;;;;2.72;2.20;;;;;;;-145.79;100.00;76499.84;5329209;28;20032;-68
2023/10/30 11:22:42;;;;;;;5.47;1.80;;;;;;;-145.79;100.00;76491.38;5319503;28;20053;-68
2023/10/30 11:26:11;;;;;;;3.70;2.10;;;;;;;-145.79;100.00;76480.78;5332093;28;20033;-68
2023/10/30 11:28:37;;;;;;;5.55;1.77;;;;;;;-145.79;100.00;76478.66;5325526;28;20185;-68
2023/10/30 11:31:08;;;;;;;3.55;1.52;;;;;;;-145.79;100.00;76474.41;5312425;28;20023;-68
2023/10/30 11:33:42;;;;;;;5.20;2.53;;;;;;;-145.79;100.00;76468.06;5332259;28;20031;-67
2023/10/30 11:36:19;;;;;;;5.63;1.88;;;;;;;-145.79;100.00;76470.19;5321013;28;20094;-66
2023/10/30 11:38:57;;;;;;;5.63;1.70;;;;;;;-145.79;100.00;76465.94;5335566;28;20490;-67
2023/10/30 11:41:28;;;;;;;3.22;1.58;;;;;;;-145.79;100.00;76455.34;5332122;28;20024;-67
2023/10/30 11:44:13;;;;;;;8.10;1.90;;;;;;;-145.79;100.00;76446.88;5321399;28;20097;-68
2023/10/30 11:46:49;;;;;;;4.15;1.65;;;;;;;-145.79;100.00;76451.09;5329138;28;20470;-66
2023/10/30 11:49:22;;;;;;;5.50;3.38;;;;;;;-145.79;100.00;76448.97;5330113;28;20024;-67
2023/10/30 11:51:54;;;;;;;9.73;8.32;;;;;;;-145.79;100.00;76444.75;5331097;28;20016;-67
2023/10/30 11:54:28;;;;;;;4.20;1.92;;;;;;;-145.79;100.00;76438.38;5335274;28;20027;-67
2023/10/30 11:57:00;;;;;;;6.72;2.10;;;;;;;-145.79;100.00;76436.28;5332642;28;20608;-68
2023/10/30 11:59:32;;;;;;;2.72;1.45;;;;;;;-145.79;100.00;76425.66;5332494;28;20055;-67
2023/10/30 12:02:05;;;;;;;4.78;1.60;;;;;;;-145.79;100.00;76423.56;5314655;28;20114;-67
2023/10/30 12:04:36;;;;;;;2.78;1.30;;;;;;;-145.79;100.00;76415.06;5313021;28;20494;-67
2023/10/30 12:07:08;;;;;;;4.70;1.60;;;;;;;-145.79;100.00;76419.31;5310357;28;20017;-68
2023/10/30 12:09:39;;;;;;;3.42;1.48;;;;;;;-145.79;100.00;76417.19;5318219;27;20031;-68
2023/10/30 12:12:11;;;;;;;4.70;2.10;;;;;;;-145.79;100.00;76406.59;5319635;27;20111;-68
2023/10/30 12:14:42;;;;;;;11.98;4.78;;;;;;;-145.79;100.00;76404.47;5323797;27;20557;-68
2023/10/30 12:17:14;;;;;;;5.13;2.70;;;;;;;-145.79;100.00;76398.13;5335532;27;20102;-68
2023/10/30 12:19:45;;;;;;;7.00;2.60;;;;;;;-145.79;100.00;76393.88;5332527;27;20116;-68
2023/10/30 12:22:17;;;;;;;3.15;1.40;;;;;;;-145.79;99.99;76389.66;5321221;27;20134;-69
2023/10/30 12:24:49;;;;;;;3.50;1.17;;;;;;;-145.79;100.00;76383.28;5332889;27;20035;-67
2023/10/30 12:27:22;;;;;;;4.50;1.88;;;;;;;-145.79;100.00;76381.16;5327191;27;20387;-68
2023/10/30 12:29:57;;;;;;;3.63;1.55;;;;;;;-145.79;100.00;76379.06;5333877;27;20039;-68
2023/10/30 12:32:31;;;;;;;3.53;2.30;;;;;;;-145.79;100.00;76368.47;5334369;27;20075;-67
2023/10/30 12:35:10;;;;;;;4.53;2.22;;;;;;;-145.79;100.00;76362.09;5333707;27;20032;-67
2023/10/30 12:37:42;;;;;;;7.90;2.17;;;;;;;-145.79;100.00;76355.75;5333891;27;20066;-68
2023/10/30 12:40:13;;;;;;;4.38;1.10;;;;;;;-145.79;100.00;76351.50;5338107;27;20023;-69
2023/10/30 12:42:46;;;;;;;3.45;1.35;;;;;;;-145.79;100.00;76355.75;5339435;27;20035;-68
2023/10/30 12:45:20;;;;;;;4.13;1.38;;;;;;;-145.79;99.01;76359.97;5335596;27;20023;-67
2023/10/30 12:47:51;;;;;;;2.80;1.33;;;;;;;-145.79;98.83;76353.63;5334526;27;20023;-67
2023/10/30 12:50:23;;;;;;;2.85;1.20;;;;;;;-145.79;97.85;76355.75;5343105;27;20654;-68
2023/10/30 12:52:54;;;;;;;1.73;0.82;;;;;;;-145.79;97.23;76351.50;5334930;27;20047;-69
2023/10/30 12:55:25;;;;;;;1.50;0.93;;;;;;;-145.79;97.41;76355.75;5337656;27;20027;-69
2023/10/30 12:57:56;;;;;;;1.17;0.80;;;;;;;-145.79;97.48;76351.50;5334834;27;20023;-68
2023/10/30 13:00:28;;;;;;;2.63;1.98;;;;;;;-145.79;97.45;76351.50;5318430;27;20055;-69
2023/10/30 13:02:59;;;;;;;1.25;0.90;;;;;;;-145.79;97.66;76343.03;5338790;27;20035;-68
2023/10/30 13:05:30;;;;;;;1.58;1.48;;;;;;;-145.79;97.34;76343.03;5326733;27;20084;-68
2023/10/30 13:08:02;;;;;;;1.65;1.20;;;;;;;-145.79;97.70;76326.06;5331809;27;20032;-68
2023/10/30 13:10:33;;;;;;;7.60;2.95;;;;;;;-145.79;97.66;76319.72;5334599;27;20153;-68
2023/10/30 13:13:05;;;;;;;3.05;1.15;;;;;;;-145.79;97.73;76309.13;5334586;27;20028;-67
2023/10/30 13:15:36;;;;;;;2.17;1.17;;;;;;;-145.79;97.63;76304.88;5335149;27;20043;-67
2023/10/30 13:18:07;;;;;;;2.15;1.58;;;;;;;-145.79;98.00;76298.53;5338765;27;20482;-67
2023/10/30 13:20:39;;;;;;;1.48;0.88;;;;;;;-145.79;97.34;76304.88;5336690;27;20114;-67
2023/10/30 13:23:10;;;;;;;3.90;2.05;;;;;;;-145.79;97.86;76302.75;5333542;27;20107;-67
2023/10/30 13:25:41;;;;;;;2.22;0.95;;;;;;;-145.79;97.48;76307.00;5335593;27;20027;-69
2023/10/30 13:28:13;;;;;;;1.27;0.82;;;;;;;-145.79;97.70;76300.66;5337831;27;20054;-69
2023/10/30 13:30:45;;;;;;;2.35;1.10;;;;;;;-145.79;97.90;76287.94;5336585;27;20023;-69
2023/10/30 13:33:16;;;;;;;3.10;1.20;;;;;;;-145.79;97.67;76296.41;5332532;27;20072;-67
2023/10/30 13:35:48;;;;;;;1.67;1.00;;;;;;;-145.79;97.94;76296.41;5336321;27;20035;-69
2023/10/30 13:38:21;;;;;;;2.05;0.90;;;;;;;-145.79;98.03;76296.41;5333806;27;20023;-68
2023/10/30 13:40:52;;;;;;;3.45;1.63;;;;;;;-145.79;98.32;76290.06;5334142;27;20023;-68
2023/10/30 13:43:24;;;;;;;2.53;1.33;;;;;;;-145.79;98.58;76281.56;5333302;27;20023;-69
2023/10/30 13:45:56;;;;;;;2.50;2.30;;;;;;;-145.79;98.19;76277.34;5334495;27;20530;-69
2023/10/30 13:48:28;;;;;;;2.97;1.20;;;;;;;-145.79;98.32;76270.97;5337968;27;20045;-68
2023/10/30 13:51:00;;;;;;;2.55;1.17;;;;;;;-145.79;98.26;76277.34;5335814;27;20035;-67
2023/10/30 13:53:32;;;;;;;2.20;1.30;;;;;;;-145.79;98.61;76262.50;5334049;27;20397;-70
2023/10/30 13:56:04;;;;;;;2.25;1.30;;;;;;;-145.79;98.53;76279.47;5337463;27;20019;-69
2023/10/30 13:58:36;;;;;;;2.08;1.27;;;;;;;-145.79;98.74;76273.09;5334140;27;20019;-68
2023/10/30 14:01:07;;;;;;;3.70;1.63;;;;;;;-145.79;99.66;76266.75;5332816;27;20035;-70
2023/10/30 14:03:39;;;;;;;2.75;1.50;;;;;;;-145.79;99.32;76268.84;5330296;27;20015;-70
2023/10/30 14:06:12;;;;;;;2.08;1.40;;;;;;;-145.79;99.94;76266.75;5334055;27;20031;-68
2023/10/30 14:08:43;;;;;;;2.08;1.55;;;;;;;-145.79;100.00;76262.50;5324357;27;20047;-68
2023/10/30 14:11:14;;;;;;;2.67;1.40;;;;;;;-145.79;100.00;76264.63;5329823;27;20509;-69
2023/10/30 14:13:46;;;;;;;6.30;1.77;;;;;;;-145.79;100.00;76266.75;5336608;27;20049;-69
2023/10/30 14:16:17;;;;;;;1.67;1.30;;;;;;;-145.79;100.00;76270.97;5328301;27;20020;-70
2023/10/30 14:18:48;;;;;;;2.65;1.30;;;;;;;-145.79;100.00;76268.84;5334285;27;20034;-68
2023/10/30 14:21:24;;;;;;;4.90;1.67;;;;;;;-145.79;100.00;76266.75;5331079;27;20047;-69
2023/10/30 14:23:55;;;;;;;3.58;1.75;;;;;;;-145.79;100.00;76262.50;5330943;27;20041;-69
2023/10/30 14:26:28;;;;;;;5.35;2.28;;;;;;;-145.79;100.00;76264.63;5335799;27;20039;-69
2023/10/30 14:28:59;;;;;;;3.75;2.22;;;;;;;-145.79;100.00;76258.25;5329311;27;20027;-68
2023/10/30 14:31:31;;;;;;;4.13;1.73;;;;;;;-145.79;100.00;76258.25;5334157;27;20103;-68
2023/10/30 14:34:02;;;;;;;4.40;1.90;;;;;;;-145.79;100.00;76266.75;5330037;27;20051;-68
2023/10/30 14:36:34;;;;;;;3.47;2.13;;;;;;;-145.79;100.00;76258.25;5332993;27;20106;-68
2023/10/30 14:39:05;;;;;;;4.22;2.30;;;;;;;-145.79;100.00;76262.50;5336008;27;20059;-68
2023/10/30 14:41:37;;;;;;;5.55;4.32;;;;;;;-145.79;100.00;76268.84;5324261;27;20046;-68
2023/10/30 14:44:08;;;;;;;4.60;3.72;;;;;;;-145.79;100.00;76266.75;5335487;27;20023;-68
2023/10/30 14:46:39;;;;;;;4.53;3.00;;;;;;;-145.79;100.00;76258.25;5331646;27;20098;-68
2023/10/30 14:49:10;;;;;;;3.65;2.53;;;;;;;-145.79;100.00;76262.50;5335207;27;20034;-68
2023/10/30 14:51:43;;;;;;;3.20;1.90;;;;;;;-145.79;100.00;76251.91;5336717;27;20023;-68
2023/10/30 14:54:14;;;;;;;6.22;2.92;;;;;;;-145.79;100.00;76254.03;5335416;27;20027;-68
2023/10/30 14:56:45;;;;;;;3.97;2.30;;;;;;;-145.79;100.00;76247.66;5336871;27;20035;-68
2023/10/30 14:59:17;;;;;;;3.80;2.40;;;;;;;-145.79;100.00;76245.56;5335174;27;20031;-68
2023/10/30 15:01:48;;;;;;;3.47;1.65;;;;;;;-145.79;100.00;76249.78;5335295;27;20019;-68
2023/10/30 15:04:19;;;;;;;4.97;1.77;;;;;;;-145.79;100.00;76241.31;5328955;27;20015;-67
2023/10/30 15:06:51;;;;;;;7.15;2.50;;;;;;;-145.79;100.00;76247.66;5334629;27;20034;-68
2023/10/30 15:09:22;;;;;;;3.55;1.95;;;;;;;-145.79;100.00;76243.44;5334575;27;20027;-68
2023/10/30 15:11:54;;;;;;;7.07;5.35;;;;;;;-145.79;100.00;76241.31;5331006;27;20422;-67
2023/10/30 15:14:26;;;;;;;2.28;1.90;;;;;;;-145.79;100.00;76243.44;5331722;28;20107;-69
2023/10/30 15:16:57;;;;;;;5.00;2.45;;;;;;;-145.79;100.00;76224.38;5336612;27;20123;-68
2023/10/30 15:19:28;;;;;;;5.30;3.72;;;;;;;-145.79;100.00;76230.72;5335322;27;20055;-67
2023/10/30 15:21:59;;;;;;;7.25;5.65;;;;;;;-145.79;100.00;76226.47;5330953;28;20048;-70
2023/10/30 15:24:31;;;;;;;4.88;3.92;;;;;;;-145.79;100.00;76226.47;5331979;28;20026;-70
2023/10/30 15:27:03;;;;;;;5.20;3.40;;;;;;;-145.79;100.00;76230.72;5331535;28;20688;-68
2023/10/30 15:29:34;;;;;;;4.22;2.80;;;;;;;-145.79;100.00;76237.06;5331029;28;20026;-67
2023/10/30 15:32:06;;;;;;;3.30;2.35;;;;;;;-145.79;100.00;76215.88;5336338;28;20027;-68
2023/10/30 15:34:37;;;;;;;5.57;2.55;;;;;;;-145.79;100.00;76218.00;5335782;28;20031;-68
2023/10/30 15:37:08;;;;;;;4.63;2.60;;;;;;;-145.79;100.00;76228.59;5323104;28;20028;-68
2023/10/30 15:39:40;;;;;;;7.40;3.10;;;;;;;-145.79;100.00;76222.25;5331868;28;20103;-68
2023/10/30 15:42:11;;;;;;;4.28;2.40;;;;;;;-145.79;100.00;76215.88;5325835;28;20027;-67
2023/10/30 15:44:42;;;;;;;4.22;1.95;;;;;;;-145.79;100.00;76192.56;5328992;27;20015;-67
2023/10/30 15:47:13;;;;;;;3.42;2.40;;;;;;;-145.79;100.00;76190.47;5329059;27;20038;-68
2023/10/30 15:49:45;;;;;;;3.97;2.85;;;;;;;-145.79;100.00;76203.16;5337362;27;20027;-67
2023/10/30 15:52:16;;;;;;;4.63;2.65;;;;;;;-145.79;100.00;76196.81;5333562;27;20378;-67
2023/10/30 15:54:47;;;;;;;4.15;2.95;;;;;;;-145.79;100.00;76194.69;5339636;27;20412;-66
2023/10/30 15:57:19;;;;;;;4.35;2.60;;;;;;;-145.79;100.00;76207.41;5331004;27;20038;-65
2023/10/30 15:59:50;;;;;;;5.93;3.10;;;;;;;-145.79;100.00;76211.66;5333496;27;20107;-69
2023/10/30 16:02:22;;;;;;;5.07;3.70;;;;;;;-145.79;100.00;76203.16;5334958;27;20047;-68
2023/10/30 16:04:53;;;;;;;4.97;3.95;;;;;;;-145.79;100.00;76207.41;5338031;27;20023;-69
2023/10/30 16:07:25;;;;;;;6.88;4.40;;;;;;;-145.79;100.00;76205.28;5337709;27;20489;-69
2023/10/30 16:09:56;;;;;;;5.25;3.83;;;;;;;-145.79;100.00;76203.16;5338719;27;20118;-69
2023/10/30 16:12:28;;;;;;;5.07;3.63;;;;;;;-145.79;100.00;76205.28;5337857;27;20031;-68
2023/10/30 16:14:59;;;;;;;6.22;4.47;;;;;;;-145.79;100.00;76198.94;5335677;27;20024;-68
2023/10/30 16:17:31;;;;;;;15.32;5.97;;;;;;;-145.79;100.00;76196.81;5336306;27;20057;-67
2023/10/30 16:20:05;;;;;;;9.05;5.45;;;;;;;-145.79;100.00;76201.06;5339713;27;20034;-70
2023/10/30 16:22:38;;;;;;;7.10;5.10;;;;;;;-145.79;100.00;76205.28;5334053;27;20043;-68
2023/10/30 16:25:09;;;;;;;8.85;5.00;;;;;;;-145.79;100.00;76198.94;5338684;27;20477;-68
2023/10/30 16:27:41;;;;;;;7.38;4.80;;;;;;;-145.79;100.00;76192.56;5338260;27;20076;-68
2023/10/30 16:30:15;;;;;;;5.75;4.57;;;;;;;-145.79;100.00;76186.22;5333591;27;20063;-69
2023/10/30 16:32:47;;;;;;;7.25;4.90;;;;;;;-145.79;100.00;76175.63;5335537;27;20043;-69
2023/10/30 16:35:18;;;;;;;4.05;3.42;;;;;;;-145.79;100.00;76186.22;5335700;27;20420;-69
2023/10/30 16:37:49;;;;;;;6.05;4.13;;;;;;;-145.79;100.00;76192.56;5336009;27;20027;-70
2023/10/30 16:40:20;;;;;;;8.82;5.53;;;;;;;-145.79;100.00;76194.69;5337827;27;20046;-68
2023/10/30 16:42:52;;;;;;;12.77;7.80;;;;;;;-145.79;100.00;76205.28;5337988;27;20114;-68
2023/10/30 16:45:23;;;;;;;13.32;8.15;;;;;;;-145.79;100.00;76211.66;5332135;27;20050;-68
2023/10/30 16:47:54;;;;;;;7.93;5.35;;;;;;;-145.79;100.00;76211.66;5332506;27;20036;-68
2023/10/30 16:50:26;;;;;;;8.43;4.40;;;;;;;-145.79;100.00;76215.88;5338017;27;20027;-69
2023/10/30 16:52:57;;;;;;;8.95;4.22;;;;;;;-145.79;100.00;76211.66;5337693;27;20035;-68
2023/10/30 16:55:28;;;;;;;6.25;4.03;;;;;;;-145.79;100.00;76211.66;5331629;27;20411;-69
